sensor_id;sensor_type;location;lat;lon;timestamp;P1;durP1;ratioP1;P2;durP2;ratioP2
40248;SDS011;25969;49.970;11.062;2022-07-23T04:23:10;10.02;;;4.65;;
40248;SDS011;25969;49.970;11.062;2022-07-23T04:33:12;5.72;;;4.63;;
40248;SDS011;25969;49.970;11.062;2022-07-23T04:43:14;8.10;;;5.00;;
40248;SDS011;25969;49.970;11.062;2022-07-23T04:53:23;7.50;;;4.57;;
40248;SDS011;25969;49.970;11.062;2022-07-23T05:03:27;7.15;;;4.80;;
40248;SDS011;25969;49.970;11.062;2022-07-23T05:13:28;10.55;;;5.72;;
40248;SDS011;25969;49.970;11.062;2022-07-23T05:23:29;6.45;;;4.32;;
40248;SDS011;25969;49.970;11.062;2022-07-23T05:33:31;8.25;;;4.70;;
40248;SDS011;25969;49.970;11.062;2022-07-23T05:53:36;8.35;;;5.47;;
40248;SDS011;25969;49.970;11.062;2022-07-23T06:03:50;7.32;;;5.35;;
40248;SDS011;25969;49.970;11.062;2022-07-23T06:13:51;6.65;;;5.30;;
40248;SDS011;25969;49.970;11.062;2022-07-23T06:23:54;14.25;;;10.50;;
40248;SDS011;25969;49.970;11.062;2022-07-23T06:33:55;14.90;;;6.75;;
40248;SDS011;25969;49.970;11.062;2022-07-23T06:43:56;10.13;;;6.30;;
40248;SDS011;25969;49.970;11.062;2022-07-23T06:53:56;11.93;;;6.72;;
40248;SDS011;25969;49.970;11.062;2022-07-23T07:03:57;11.63;;;6.40;;
40248;SDS011;25969;49.970;11.062;2022-07-23T07:13:58;9.02;;;6.68;;
40248;SDS011;25969;49.970;11.062;2022-07-23T07:23:59;8.87;;;6.13;;
40248;SDS011;25969;49.970;11.062;2022-07-23T07:34:00;11.93;;;6.82;;
40248;SDS011;25969;49.970;11.062;2022-07-23T07:44:00;10.38;;;6.00;;
40248;SDS011;25969;49.970;11.062;2022-07-23T07:54:01;9.63;;;5.78;;
40248;SDS011;25969;49.970;11.062;2022-07-23T08:04:02;8.63;;;5.30;;
40248;SDS011;25969;49.970;11.062;2022-07-23T08:14:03;8.00;;;4.65;;
40248;SDS011;25969;49.970;11.062;2022-07-23T08:24:03;6.47;;;4.90;;
40248;SDS011;25969;49.970;11.062;2022-07-23T08:34:04;8.35;;;5.25;;
40248;SDS011;25969;49.970;11.062;2022-07-23T08:44:06;12.38;;;4.80;;
40248;SDS011;25969;49.970;11.062;2022-07-23T08:54:08;10.82;;;4.68;;
40248;SDS011;25969;49.970;11.062;2022-07-23T09:04:10;5.90;;;4.55;;
40248;SDS011;25969;49.970;11.062;2022-07-23T09:14:10;7.70;;;5.00;;
40248;SDS011;25969;49.970;11.062;2022-07-23T09:24:12;6.73;;;4.60;;
40248;SDS011;25969;49.970;11.062;2022-07-23T09:34:25;10.90;;;5.30;;
40248;SDS011;25969;49.970;11.062;2022-07-23T10:04:31;13.90;;;5.63;;
40248;SDS011;25969;49.970;11.062;2022-07-23T10:14:46;7.53;;;4.88;;
40248;SDS011;25969;49.970;11.062;2022-07-23T11:05:41;7.53;;;5.50;;
40248;SDS011;25969;49.970;11.062;2022-07-23T11:26:03;5.57;;;5.10;;
40248;SDS011;25969;49.970;11.062;2022-07-23T11:36:05;6.00;;;4.80;;
40248;SDS011;25969;49.970;11.062;2022-07-23T11:46:09;6.65;;;4.55;;
40248;SDS011;25969;49.970;11.062;2022-07-23T11:56:11;9.05;;;4.68;;
40248;SDS011;25969;49.970;11.062;2022-07-23T12:06:11;5.55;;;4.57;;
40248;SDS011;25969;49.970;11.062;2022-07-23T12:16:12;8.63;;;4.82;;
40248;SDS011;25969;49.970;11.062;2022-07-23T12:26:13;5.13;;;4.63;;
40248;SDS011;25969;49.970;11.062;2022-07-23T12:36:13;5.72;;;4.40;;
40248;SDS011;25969;49.970;11.062;2022-07-23T12:46:15;10.15;;;4.60;;
40248;SDS011;25969;49.970;11.062;2022-07-23T12:56:26;7.22;;;4.22;;
40248;SDS011;25969;49.970;11.062;2022-07-23T13:06:31;4.47;;;4.07;;
40248;SDS011;25969;49.970;11.062;2022-07-23T13:16:33;7.03;;;4.27;;
40248;SDS011;25969;49.970;11.062;2022-07-23T13:26:34;4.87;;;3.90;;
40248;SDS011;25969;49.970;11.062;2022-07-23T13:36:35;5.30;;;4.20;;
40248;SDS011;25969;49.970;11.062;2022-07-23T13:46:36;7.55;;;4.13;;
40248;SDS011;25969;49.970;11.062;2022-07-23T13:56:37;6.22;;;4.22;;
40248;SDS011;25969;49.970;11.062;2022-07-23T14:06:38;4.82;;;4.22;;
40248;SDS011;25969;49.970;11.062;2022-07-23T14:16:38;10.73;;;4.70;;
40248;SDS011;25969;49.970;11.062;2022-07-23T14:26:39;7.25;;;5.05;;
40248;SDS011;25969;49.970;11.062;2022-07-23T14:36:40;6.55;;;4.60;;
40248;SDS011;25969;49.970;11.062;2022-07-23T14:46:41;11.27;;;4.63;;
40248;SDS011;25969;49.970;11.062;2022-07-23T14:56:42;7.97;;;4.68;;
40248;SDS011;25969;49.970;11.062;2022-07-23T15:06:43;6.05;;;4.70;;
40248;SDS011;25969;49.970;11.062;2022-07-23T15:16:46;4.63;;;4.20;;
40248;SDS011;25969;49.970;11.062;2022-07-23T15:26:46;7.38;;;4.72;;
40248;SDS011;25969;49.970;11.062;2022-07-23T15:36:47;4.93;;;4.15;;
40248;SDS011;25969;49.970;11.062;2022-07-23T15:46:48;4.70;;;4.20;;
40248;SDS011;25969;49.970;11.062;2022-07-23T15:56:49;5.57;;;4.05;;
40248;SDS011;25969;49.970;11.062;2022-07-23T16:06:49;8.95;;;4.40;;
40248;SDS011;25969;49.970;11.062;2022-07-23T16:16:50;4.38;;;3.85;;
40248;SDS011;25969;49.970;11.062;2022-07-23T16:26:51;6.63;;;4.07;;
40248;SDS011;25969;49.970;11.062;2022-07-23T16:36:52;7.15;;;4.22;;
40248;SDS011;25969;49.970;11.062;2022-07-23T16:46:53;5.55;;;4.38;;
40248;SDS011;25969;49.970;11.062;2022-07-23T16:56:53;5.65;;;3.85;;
40248;SDS011;25969;49.970;11.062;2022-07-23T17:06:54;5.00;;;4.00;;
40248;SDS011;25969;49.970;11.062;2022-07-23T17:16:57;5.55;;;4.00;;
40248;SDS011;25969;49.970;11.062;2022-07-23T17:26:58;6.72;;;3.97;;
40248;SDS011;25969;49.970;11.062;2022-07-23T17:36:59;7.78;;;3.60;;
40248;SDS011;25969;49.970;11.062;2022-07-23T17:47:00;4.13;;;3.70;;
40248;SDS011;25969;49.970;11.062;2022-07-23T17:57:01;4.93;;;4.07;;
40248;SDS011;25969;49.970;11.062;2022-07-23T18:07:02;4.57;;;3.65;;
40248;SDS011;25969;49.970;11.062;2022-07-23T18:17:03;6.10;;;3.70;;
40248;SDS011;25969;49.970;11.062;2022-07-23T18:27:04;4.03;;;3.30;;
40248;SDS011;25969;49.970;11.062;2022-07-23T18:37:05;4.30;;;3.88;;
40248;SDS011;25969;49.970;11.062;2022-07-23T18:47:05;6.10;;;4.20;;
40248;SDS011;25969;49.970;11.062;2022-07-23T18:57:06;4.72;;;3.40;;
40248;SDS011;25969;49.970;11.062;2022-07-23T19:07:07;5.70;;;3.90;;
40248;SDS011;25969;49.970;11.062;2022-07-23T19:17:07;5.25;;;3.90;;
40248;SDS011;25969;49.970;11.062;2022-07-23T19:27:08;9.50;;;4.00;;
40248;SDS011;25969;49.970;11.062;2022-07-23T19:47:14;5.65;;;4.15;;
40248;SDS011;25969;49.970;11.062;2022-07-23T19:57:15;6.68;;;3.42;;
40248;SDS011;25969;49.970;11.062;2022-07-23T20:07:16;7.03;;;3.70;;
40248;SDS011;25969;49.970;11.062;2022-07-23T20:17:17;4.45;;;3.55;;
40248;SDS011;25969;49.970;11.062;2022-07-23T20:27:18;4.45;;;3.70;;
40248;SDS011;25969;49.970;11.062;2022-07-23T20:37:19;3.83;;;3.35;;
40248;SDS011;25969;49.970;11.062;2022-07-23T20:47:20;6.83;;;3.53;;
40248;SDS011;25969;49.970;11.062;2022-07-23T20:57:20;7.07;;;4.03;;
40248;SDS011;25969;49.970;11.062;2022-07-23T21:07:21;4.90;;;4.00;;
40248;SDS011;25969;49.970;11.062;2022-07-23T21:17:22;5.53;;;3.83;;
40248;SDS011;25969;49.970;11.062;2022-07-23T21:27:23;5.60;;;3.83;;
40248;SDS011;25969;49.970;11.062;2022-07-23T21:37:23;4.57;;;3.70;;
40248;SDS011;25969;49.970;11.062;2022-07-23T21:47:24;6.13;;;3.60;;
